Time;durP1;ratioP1;P1;durP2;ratioP2;P2;SDS_P1;SDS_P2;PMS_P1;PMS_P2;Temp;Humidity;BMP_temperature;BMP_pressure;BME280_temperature;BME280_humidity;BME280_pressure;Samples;Min_cycle;Max_cycle;Signal;HPM_P1;HPM_P2
2022/11/22 00:01:58;;;;;;;14.37;8.63;;;;;;;;;;5235682;28;20301;-78
2022/11/22 00:04:29;;;;;;;16.15;9.13;;;;;;;;;;5233960;28;20303;-78
2022/11/22 00:07:00;;;;;;;16.27;9.13;;;;;;;;;;5232552;28;20041;-77
2022/11/22 00:09:31;;;;;;;20.60;9.25;;;;;;;;;;5235999;28;20344;-78
2022/11/22 00:12:03;;;;;;;18.93;9.53;;;;;;;;;;5234579;28;20047;-77
2022/11/22 00:14:34;;;;;;;16.80;8.23;;;;;;;;;;5214320;28;20367;-78
2022/11/22 00:17:05;;;;;;;18.23;8.60;;;;;;;;;;5231914;28;20041;-78
2022/11/22 00:19:40;;;;;;;16.97;8.27;;;;;;;;;;5230479;28;20320;-78
2022/11/22 00:22:11;;;;;;;20.65;9.60;;;;;;;;;;5232167;28;20419;-78
2022/11/22 00:24:45;;;;;;;17.00;8.80;;;;;;;;;;5235833;28;20470;-78
2022/11/22 00:27:16;;;;;;;18.08;8.55;;;;;;;;;;5214763;28;20061;-78
2022/11/22 00:29:47;;;;;;;16.13;8.00;;;;;;;;;;5234773;28;20112;-78
2022/11/22 00:32:18;;;;;;;18.90;8.30;;;;;;;;;;5236468;28;20026;-79
2022/11/22 00:34:50;;;;;;;18.08;8.02;;;;;;;;;;5217437;28;20637;-77
2022/11/22 00:37:21;;;;;;;14.98;8.15;;;;;;;;;;5233922;28;20022;-78
2022/11/22 00:39:52;;;;;;;18.23;8.37;;;;;;;;;;5233288;28;20080;-78
2022/11/22 00:42:23;;;;;;;17.23;7.75;;;;;;;;;;5233554;28;20324;-78
2022/11/22 00:44:55;;;;;;;18.13;7.73;;;;;;;;;;5232304;28;20366;-78
2022/11/22 00:47:26;;;;;;;16.33;8.35;;;;;;;;;;5232477;28;20273;-78
2022/11/22 00:49:57;;;;;;;16.17;8.00;;;;;;;;;;5233271;28;20034;-78
2022/11/22 00:52:28;;;;;;;24.20;8.57;;;;;;;;;;5232822;28;20273;-78
2022/11/22 00:54:59;;;;;;;17.27;8.13;;;;;;;;;;5232167;28;20026;-78
2022/11/22 00:57:31;;;;;;;15.95;7.03;;;;;;;;;;5214531;28;20038;-78
2022/11/22 01:00:03;;;;;;;20.97;8.63;;;;;;;;;;5236325;28;20109;-78
2022/11/22 01:02:34;;;;;;;17.08;7.53;;;;;;;;;;5231756;28;20289;-78
2022/11/22 01:05:05;;;;;;;15.00;7.87;;;;;;;;;;5233927;28;20034;-78
2022/11/22 01:07:36;;;;;;;14.95;6.97;;;;;;;;;;5232246;28;20285;-77
2022/11/22 01:10:08;;;;;;;14.17;7.33;;;;;;;;;;5233717;28;20022;-77
2022/11/22 01:12:39;;;;;;;16.73;7.00;;;;;;;;;;5231401;28;20934;-78
2022/11/22 01:15:10;;;;;;;18.23;7.23;;;;;;;;;;5232849;28;20445;-78
2022/11/22 01:17:41;;;;;;;21.65;7.38;;;;;;;;;;5231881;28;20395;-78
2022/11/22 01:20:12;;;;;;;17.50;6.87;;;;;;;;;;5231195;28;20030;-78
2022/11/22 01:22:44;;;;;;;20.80;7.87;;;;;;;;;;5230519;28;20761;-78
2022/11/22 01:25:15;;;;;;;17.30;6.60;;;;;;;;;;5230286;28;20686;-78
2022/11/22 01:27:46;;;;;;;14.85;6.20;;;;;;;;;;5232643;28;20169;-78
2022/11/22 01:30:18;;;;;;;21.17;7.47;;;;;;;;;;5234820;28;21457;-77
2022/11/22 01:32:49;;;;;;;16.00;5.80;;;;;;;;;;5233938;28;20030;-78
2022/11/22 01:35:20;;;;;;;17.73;6.20;;;;;;;;;;5219340;28;20042;-78
2022/11/22 01:37:51;;;;;;;16.20;6.00;;;;;;;;;;5235931;28;20410;-78
2022/11/22 01:40:22;;;;;;;15.25;5.78;;;;;;;;;;5234162;28;20018;-78
2022/11/22 01:42:55;;;;;;;25.23;5.93;;;;;;;;;;5234045;28;20038;-79
2022/11/22 01:45:29;;;;;;;19.80;5.80;;;;;;;;;;5236735;28;20041;-78
2022/11/22 01:48:05;;;;;;;19.27;5.30;;;;;;;;;;5217740;28;20386;-77
2022/11/22 01:50:38;;;;;;;24.33;5.47;;;;;;;;;;5215788;28;20032;-77
2022/11/22 01:53:11;;;;;;;20.52;5.38;;;;;;;;;;5233222;28;20028;-77
2022/11/22 01:55:43;;;;;;;19.10;5.18;;;;;;;;;;5237890;28;20033;-77
2022/11/22 01:58:14;;;;;;;20.98;5.18;;;;;;;;;;5236609;28;20038;-77
2022/11/22 02:00:47;;;;;;;20.83;5.50;;;;;;;;;;5235928;28;20185;-77
2022/11/22 02:03:19;;;;;;;23.45;4.75;;;;;;;;;;5217391;28;20048;-77
2022/11/22 02:05:50;;;;;;;22.27;4.65;;;;;;;;;;5236738;28;20022;-77
2022/11/22 02:08:25;;;;;;;19.35;4.97;;;;;;;;;;5235985;28;20188;-77
2022/11/22 02:10:58;;;;;;;25.15;5.53;;;;;;;;;;5215896;28;20026;-78
2022/11/22 02:13:30;;;;;;;17.08;4.38;;;;;;;;;;5234967;28;20033;-77
2022/11/22 02:16:02;;;;;;;14.85;3.42;;;;;;;;;;5236356;28;20030;-78
2022/11/22 02:18:34;;;;;;;24.20;4.18;;;;;;;;;;5235639;28;20386;-77
2022/11/22 02:21:06;;;;;;;15.35;3.95;;;;;;;;;;5235500;28;20761;-77
2022/11/22 02:23:37;;;;;;;17.02;4.22;;;;;;;;;;5216822;28;20121;-77
2022/11/22 02:26:09;;;;;;;21.15;3.97;;;;;;;;;;5237072;28;20025;-77
2022/11/22 02:28:40;;;;;;;26.63;5.45;;;;;;;;;;5235571;28;20375;-77
2022/11/22 02:31:31;;;;;;;21.10;4.13;;;;;;;;;;5235328;28;20034;-77
2022/11/22 02:34:02;;;;;;;20.58;4.57;;;;;;;;;;5233266;28;20128;-77
2022/11/22 02:36:36;;;;;;;24.10;4.38;;;;;;;;;;5236877;28;20054;-77
2022/11/22 02:39:08;;;;;;;18.80;4.00;;;;;;;;;;5234593;28;20524;-77
2022/11/22 02:41:39;;;;;;;19.15;3.78;;;;;;;;;;5218687;28;20067;-77
2022/11/22 02:44:11;;;;;;;19.83;4.47;;;;;;;;;;5235130;28;20363;-77
2022/11/22 02:46:46;;;;;;;24.08;4.00;;;;;;;;;;5235253;28;20026;-78
2022/11/22 02:49:18;;;;;;;19.30;4.53;;;;;;;;;;5235062;28;20034;-78
2022/11/22 02:51:50;;;;;;;29.48;4.43;;;;;;;;;;5236802;28;20084;-78
2022/11/22 02:54:21;;;;;;;25.40;5.30;;;;;;;;;;5235542;28;20108;-78
2022/11/22 02:56:52;;;;;;;24.45;4.40;;;;;;;;;;5234666;28;20018;-78
2022/11/22 02:59:24;;;;;;;19.90;3.77;;;;;;;;;;5235414;28;20161;-78
2022/11/22 03:01:55;;;;;;;21.13;4.27;;;;;;;;;;5236377;28;20780;-78
2022/11/22 03:04:26;;;;;;;31.27;5.63;;;;;;;;;;5232479;28;20973;-78
2022/11/22 03:06:58;;;;;;;22.20;4.03;;;;;;;;;;5234363;28;20269;-78
2022/11/22 03:09:30;;;;;;;24.45;4.53;;;;;;;;;;5235548;28;20181;-78
2022/11/22 03:12:02;;;;;;;24.23;4.53;;;;;;;;;;5235505;28;20034;-78
2022/11/22 03:14:33;;;;;;;23.90;4.40;;;;;;;;;;5231533;28;20057;-78
2022/11/22 03:17:04;;;;;;;25.60;3.97;;;;;;;;;;5220115;28;20030;-78
2022/11/22 03:19:35;;;;;;;28.73;4.90;;;;;;;;;;5235937;28;20026;-78
2022/11/22 03:22:07;;;;;;;24.70;3.90;;;;;;;;;;5234908;28;20312;-78
2022/11/22 03:24:38;;;;;;;24.88;4.40;;;;;;;;;;5233835;28;20040;-78
2022/11/22 03:27:09;;;;;;;21.77;4.57;;;;;;;;;;5236812;28;20221;-78
2022/11/22 03:29:40;;;;;;;23.47;4.23;;;;;;;;;;5218095;28;20188;-79
2022/11/22 03:32:12;;;;;;;20.58;4.30;;;;;;;;;;5233502;28;20269;-78
2022/11/22 03:34:43;;;;;;;20.83;3.53;;;;;;;;;;5233466;28;20124;-78
2022/11/22 03:37:14;;;;;;;17.95;3.35;;;;;;;;;;5236190;28;20032;-78
2022/11/22 03:39:45;;;;;;;29.02;4.13;;;;;;;;;;5233760;28;20038;-78
2022/11/22 03:42:17;;;;;;;22.90;3.90;;;;;;;;;;5216817;28;20030;-78
2022/11/22 03:44:48;;;;;;;20.95;3.33;;;;;;;;;;5233722;28;20347;-78
2022/11/22 03:47:19;;;;;;;26.73;4.78;;;;;;;;;;5217504;28;20021;-78
2022/11/22 03:49:50;;;;;;;19.98;3.42;;;;;;;;;;5216899;28;20054;-78
2022/11/22 03:52:21;;;;;;;25.40;3.80;;;;;;;;;;5233700;28;20128;-78
2022/11/22 03:54:53;;;;;;;22.87;4.83;;;;;;;;;;5216000;28;20414;-78
2022/11/22 03:57:24;;;;;;;24.90;4.70;;;;;;;;;;5234227;28;20364;-78
2022/11/22 03:59:55;;;;;;;23.17;3.67;;;;;;;;;;5233956;28;20360;-78
2022/11/22 04:02:26;;;;;;;29.43;5.23;;;;;;;;;;5233812;28;20038;-78
2022/11/22 04:04:57;;;;;;;22.33;4.18;;;;;;;;;;5234513;28;20363;-78
2022/11/22 04:07:29;;;;;;;17.52;4.05;;;;;;;;;;5234936;28;20617;-78
2022/11/22 04:10:00;;;;;;;21.80;4.00;;;;;;;;;;5233959;28;20041;-78
2022/11/22 04:12:31;;;;;;;16.08;3.50;;;;;;;;;;5233648;28;20034;-78
2022/11/22 04:15:05;;;;;;;20.92;4.18;;;;;;;;;;5233255;28;20038;-78
2022/11/22 04:17:40;;;;;;;27.05;4.40;;;;;;;;;;5230364;28;20026;-78
2022/11/22 04:23:21;;;;;;;20.55;4.47;;;;;;;;;;5234577;28;20038;-78
2022/11/22 04:25:53;;;;;;;23.33;4.53;;;;;;;;;;5216099;28;20135;-78
2022/11/22 04:28:24;;;;;;;23.55;4.68;;;;;;;;;;5233516;28;20546;-78
2022/11/22 04:33:45;;;;;;;16.90;3.60;;;;;;;;;;5233268;28;20041;-78
2022/11/22 04:36:16;;;;;;;21.60;4.60;;;;;;;;;;5217445;28;20453;-78
2022/11/22 04:38:48;;;;;;;25.53;3.97;;;;;;;;;;5215158;28;20623;-78
2022/11/22 04:41:22;;;;;;;28.07;4.00;;;;;;;;;;5233389;28;20408;-78
2022/11/22 04:46:43;;;;;;;23.05;5.15;;;;;;;;;;5235331;28;20038;-78
2022/11/22 04:49:14;;;;;;;23.97;5.80;;;;;;;;;;5232314;28;20497;-78
2022/11/22 04:54:35;;;;;;;22.13;3.58;;;;;;;;;;5232297;28;20301;-78
2022/11/22 04:57:06;;;;;;;23.77;4.53;;;;;;;;;;5234051;28;20041;-78
2022/11/22 04:59:38;;;;;;;21.25;3.85;;;;;;;;;;5231234;28;20281;-78
2022/11/22 05:02:09;;;;;;;21.60;3.87;;;;;;;;;;5233110;28;20034;-78
2022/11/22 05:04:40;;;;;;;22.60;3.72;;;;;;;;;;5236377;28;20320;-78
2022/11/22 05:07:11;;;;;;;22.42;4.40;;;;;;;;;;5221823;28;20112;-78
2022/11/22 05:09:42;;;;;;;17.63;3.55;;;;;;;;;;5221574;28;20069;-78
2022/11/22 05:12:14;;;;;;;16.65;3.08;;;;;;;;;;5241132;28;20120;-78
2022/11/22 05:14:45;;;;;;;18.25;4.00;;;;;;;;;;5239881;28;20036;-78
2022/11/22 05:17:16;;;;;;;18.30;3.22;;;;;;;;;;5239863;28;20022;-78
2022/11/22 05:19:47;;;;;;;20.20;4.17;;;;;;;;;;5236398;28;20124;-78
2022/11/22 05:23:52;;;;;;;18.57;3.90;;;;;;;;;;5219328;28;20304;-78
2022/11/22 05:25:10;;;;;;;22.27;4.93;;;;;;;;;;5236006;28;20256;-78
2022/11/22 05:27:41;;;;;;;19.57;3.60;;;;;;;;;;5240313;28;20033;-78
2022/11/22 05:30:12;;;;;;;14.33;3.00;;;;;;;;;;5240146;28;20590;-78
2022/11/22 05:32:43;;;;;;;16.70;3.80;;;;;;;;;;5240681;28;20245;-78
2022/11/22 05:35:15;;;;;;;21.90;4.28;;;;;;;;;;5238167;28;20371;-78
2022/11/22 05:37:46;;;;;;;16.33;3.65;;;;;;;;;;5238354;28;20022;-78
2022/11/22 05:40:17;;;;;;;19.27;3.63;;;;;;;;;;5220928;28;20409;-78
2022/11/22 05:42:48;;;;;;;18.60;3.67;;;;;;;;;;5239938;28;20626;-78
2022/11/22 05:45:19;;;;;;;18.75;3.70;;;;;;;;;;5239265;28;20265;-78
2022/11/22 05:47:50;;;;;;;15.93;4.17;;;;;;;;;;5222348;28;20030;-77
2022/11/22 05:50:22;;;;;;;22.25;3.60;;;;;;;;;;5236844;28;20320;-77
2022/11/22 05:52:53;;;;;;;20.45;3.65;;;;;;;;;;5218726;28;20667;-77
2022/11/22 05:55:24;;;;;;;16.45;3.55;;;;;;;;;;5242212;28;20471;-77
2022/11/22 05:58:00;;;;;;;18.25;4.22;;;;;;;;;;5239457;28;20105;-77
2022/11/22 06:00:31;;;;;;;21.20;4.00;;;;;;;;;;5238900;28;20042;-77
2022/11/22 06:03:02;;;;;;;17.88;3.00;;;;;;;;;;5239536;28;20524;-77
2022/11/22 06:05:34;;;;;;;19.98;3.55;;;;;;;;;;5238394;28;20080;-78
2022/11/22 06:08:05;;;;;;;20.17;4.40;;;;;;;;;;5239108;28;20110;-79
2022/11/22 06:10:39;;;;;;;21.85;4.22;;;;;;;;;;5240362;28;20745;-79
2022/11/22 06:13:10;;;;;;;18.90;3.58;;;;;;;;;;5221434;28;20034;-79
2022/11/22 06:15:41;;;;;;;15.47;3.20;;;;;;;;;;5221867;28;20402;-79
2022/11/22 06:18:12;;;;;;;14.45;3.70;;;;;;;;;;5238028;28;20786;-79
2022/11/22 06:20:43;;;;;;;13.40;3.25;;;;;;;;;;5241134;28;20026;-79
2022/11/22 06:23:15;;;;;;;12.93;4.40;;;;;;;;;;5237788;28;20050;-79
2022/11/22 06:25:46;;;;;;;17.65;3.50;;;;;;;;;;5238300;28;20300;-79
2022/11/22 06:28:17;;;;;;;11.75;3.70;;;;;;;;;;5238348;28;20037;-79
2022/11/22 06:30:48;;;;;;;18.65;3.90;;;;;;;;;;5238948;28;20269;-79
2022/11/22 06:33:19;;;;;;;12.15;3.85;;;;;;;;;;5241701;28;20030;-79
2022/11/22 06:35:50;;;;;;;16.27;3.95;;;;;;;;;;5236467;28;20477;-79
2022/11/22 06:38:22;;;;;;;23.45;4.07;;;;;;;;;;5242633;28;20033;-79
2022/11/22 06:40:57;;;;;;;19.83;3.80;;;;;;;;;;5243080;28;20443;-78
2022/11/22 06:43:29;;;;;;;13.93;3.83;;;;;;;;;;5241327;28;20658;-78
2022/11/22 06:46:01;;;;;;;20.42;3.72;;;;;;;;;;5232635;28;20033;-78
2022/11/22 06:48:33;;;;;;;17.77;3.80;;;;;;;;;;5235813;28;20057;-78
2022/11/22 06:51:06;;;;;;;15.07;5.38;;;;;;;;;;5217440;28;20037;-78
2022/11/22 06:53:37;;;;;;;20.83;3.97;;;;;;;;;;5241920;28;20423;-78
2022/11/22 06:56:14;;;;;;;11.60;3.65;;;;;;;;;;5224735;28;20029;-78
2022/11/22 06:58:46;;;;;;;19.48;4.05;;;;;;;;;;5238081;28;20034;-78
2022/11/22 07:01:18;;;;;;;19.77;4.15;;;;;;;;;;5235873;28;20372;-78
2022/11/22 07:03:50;;;;;;;22.58;3.75;;;;;;;;;;5237725;28;20125;-78
2022/11/22 07:06:21;;;;;;;22.42;4.57;;;;;;;;;;5235284;28;20036;-78
2022/11/22 07:08:53;;;;;;;18.73;4.18;;;;;;;;;;5238837;28;20108;-78
2022/11/22 07:11:25;;;;;;;12.23;3.60;;;;;;;;;;5242539;28;20033;-77
2022/11/22 07:13:57;;;;;;;15.50;4.18;;;;;;;;;;5241858;28;20105;-78
2022/11/22 07:16:28;;;;;;;18.38;3.70;;;;;;;;;;5242743;28;20089;-78
2022/11/22 07:19:00;;;;;;;10.43;3.70;;;;;;;;;;5241404;28;20026;-78
2022/11/22 07:21:31;;;;;;;15.85;3.67;;;;;;;;;;5241965;28;20041;-78
2022/11/22 07:24:03;;;;;;;16.77;3.65;;;;;;;;;;5224095;28;20061;-78
2022/11/22 07:26:34;;;;;;;13.85;3.38;;;;;;;;;;5242519;28;20033;-79
2022/11/22 07:29:06;;;;;;;18.33;4.35;;;;;;;;;;5239963;28;20355;-78
2022/11/22 07:31:37;;;;;;;15.38;3.83;;;;;;;;;;5242328;28;20028;-78
2022/11/22 07:34:09;;;;;;;14.75;2.90;;;;;;;;;;5234607;28;20042;-78
2022/11/22 07:36:40;;;;;;;13.35;3.35;;;;;;;;;;5221936;28;20018;-78
2022/11/22 07:39:11;;;;;;;16.90;3.50;;;;;;;;;;5219924;28;20057;-79
2022/11/22 07:41:42;;;;;;;13.05;4.07;;;;;;;;;;5221699;28;20356;-78
2022/11/22 07:44:14;;;;;;;14.50;3.30;;;;;;;;;;5226209;28;20026;-79
2022/11/22 07:46:46;;;;;;;16.67;4.53;;;;;;;;;;5241882;28;20037;-78
2022/11/22 07:49:17;;;;;;;12.02;3.40;;;;;;;;;;5241421;28;20711;-79
2022/11/22 07:51:49;;;;;;;13.40;3.70;;;;;;;;;;5241984;28;20136;-78
2022/11/22 07:54:20;;;;;;;16.13;4.30;;;;;;;;;;5242180;28;20296;-78
2022/11/22 07:56:51;;;;;;;17.70;4.22;;;;;;;;;;5240934;28;20387;-78
2022/11/22 07:59:22;;;;;;;19.40;3.40;;;;;;;;;;5223334;28;20340;-77
2022/11/22 08:01:54;;;;;;;12.95;3.35;;;;;;;;;;5261402;28;20075;-78
2022/11/22 08:04:25;;;;;;;13.05;3.03;;;;;;;;;;5262485;28;20420;-78
2022/11/22 08:06:56;;;;;;;10.87;2.90;;;;;;;;;;5263113;28;20030;-78
2022/11/22 08:09:27;;;;;;;15.02;3.25;;;;;;;;;;5260539;28;20842;-78
2022/11/22 08:11:58;;;;;;;9.88;3.60;;;;;;;;;;5245744;28;20026;-78
2022/11/22 08:14:30;;;;;;;16.70;4.65;;;;;;;;;;5221476;28;20022;-79
2022/11/22 08:17:01;;;;;;;12.48;3.15;;;;;;;;;;5220172;28;20088;-77
2022/11/22 08:19:34;;;;;;;10.73;2.65;;;;;;;;;;5220946;28;20483;-77
2022/11/22 08:22:05;;;;;;;13.23;2.50;;;;;;;;;;5221135;28;21265;-78
2022/11/22 08:24:37;;;;;;;9.13;2.50;;;;;;;;;;5221221;28;20034;-78
2022/11/22 08:27:11;;;;;;;11.85;2.90;;;;;;;;;;5237027;28;20036;-78
2022/11/22 08:29:42;;;;;;;18.38;3.78;;;;;;;;;;5241661;28;21010;-78
2022/11/22 08:32:13;;;;;;;12.43;3.03;;;;;;;;;;5241630;28;20018;-78
2022/11/22 08:34:45;;;;;;;11.00;2.80;;;;;;;;;;5223780;28;20029;-78
2022/11/22 08:37:16;;;;;;;11.25;2.55;;;;;;;;;;5240741;28;20030;-78
2022/11/22 08:39:47;;;;;;;12.20;2.85;;;;;;;;;;5241169;28;20042;-80
2022/11/22 08:42:18;;;;;;;9.73;2.47;;;;;;;;;;5241503;28;20030;-78
2022/11/22 08:44:50;;;;;;;13.13;2.63;;;;;;;;;;5241264;28;20339;-77
2022/11/22 08:47:21;;;;;;;9.02;2.40;;;;;;;;;;5224046;28;20025;-77
2022/11/22 08:49:52;;;;;;;12.43;2.97;;;;;;;;;;5241434;28;20034;-78
2022/11/22 08:52:23;;;;;;;14.93;2.97;;;;;;;;;;5240788;28;20264;-78
2022/11/22 08:54:54;;;;;;;11.20;2.78;;;;;;;;;;5222503;28;20034;-78
2022/11/22 08:57:26;;;;;;;6.45;2.05;;;;;;;;;;5241571;28;20634;-78
2022/11/22 08:59:57;;;;;;;10.68;2.28;;;;;;;;;;5226848;28;20079;-78
2022/11/22 09:02:28;;;;;;;11.27;3.13;;;;;;;;;;5217845;28;20014;-77
2022/11/22 09:04:59;;;;;;;8.98;2.47;;;;;;;;;;5225367;28;20041;-77
2022/11/22 09:07:31;;;;;;;9.57;2.30;;;;;;;;;;5222799;28;20026;-78
2022/11/22 09:10:04;;;;;;;15.05;2.53;;;;;;;;;;5241384;28;20245;-78
2022/11/22 09:12:35;;;;;;;11.20;2.70;;;;;;;;;;5240941;28;20026;-78
2022/11/22 09:15:07;;;;;;;11.23;2.00;;;;;;;;;;5240929;28;20097;-77
2022/11/22 09:17:38;;;;;;;10.10;1.92;;;;;;;;;;5241281;28;20386;-78
2022/11/22 09:20:10;;;;;;;8.50;2.67;;;;;;;;;;5239832;28;20030;-78
2022/11/22 09:22:41;;;;;;;6.75;2.20;;;;;;;;;;5240822;28;20046;-77
2022/11/22 09:25:12;;;;;;;14.82;3.05;;;;;;;;;;5240567;28;20030;-77
2022/11/22 09:27:43;;;;;;;9.93;2.60;;;;;;;;;;5240875;28;20456;-78
2022/11/22 09:30:15;;;;;;;9.27;2.67;;;;;;;;;;5240611;28;20378;-77
2022/11/22 09:32:46;;;;;;;9.00;2.50;;;;;;;;;;5240287;28;20029;-79
2022/11/22 09:35:19;;;;;;;10.30;2.85;;;;;;;;;;5235452;28;20022;-79
2022/11/22 09:37:50;;;;;;;8.88;2.08;;;;;;;;;;5240570;28;20216;-78
2022/11/22 09:40:21;;;;;;;10.75;2.92;;;;;;;;;;5240657;28;20104;-79
2022/11/22 09:43:01;;;;;;;8.98;2.55;;;;;;;;;;5221792;28;20525;-78
2022/11/22 09:45:42;;;;;;;7.80;2.00;;;;;;;;;;5240978;28;20034;-78
2022/11/22 09:48:29;;;;;;;6.30;1.95;;;;;;;;;;5222651;28;20048;-78
2022/11/22 09:51:00;;;;;;;6.60;2.15;;;;;;;;;;5240704;28;20014;-79
2022/11/22 09:53:43;;;;;;;9.95;2.80;;;;;;;;;;5243605;28;20056;-79
2022/11/22 09:56:16;;;;;;;7.95;2.00;;;;;;;;;;5225960;28;20022;-79
2022/11/22 09:58:56;;;;;;;7.22;1.70;;;;;;;;;;5244307;28;20045;-78
2022/11/22 10:01:33;;;;;;;7.80;2.10;;;;;;;;;;5241227;28;20075;-78
2022/11/22 10:04:05;;;;;;;6.53;2.15;;;;;;;;;;5246117;28;20040;-79
2022/11/22 10:06:41;;;;;;;4.25;2.00;;;;;;;;;;5264986;28;20021;-78
2022/11/22 10:09:19;;;;;;;6.10;2.13;;;;;;;;;;5246404;28;20108;-78
2022/11/22 10:11:54;;;;;;;6.47;2.00;;;;;;;;;;5241866;28;20564;-78
2022/11/22 10:14:28;;;;;;;6.28;1.85;;;;;;;;;;5222884;28;20101;-78
2022/11/22 10:17:14;;;;;;;4.72;1.63;;;;;;;;;;5223381;28;20031;-79
2022/11/22 10:20:06;;;;;;;7.90;1.90;;;;;;;;;;5223087;28;20093;-78
2022/11/22 10:22:37;;;;;;;7.63;1.92;;;;;;;;;;5222040;28;20112;-79
2022/11/22 10:25:19;;;;;;;8.75;1.90;;;;;;;;;;5225308;28;20121;-78
2022/11/22 10:28:09;;;;;;;8.65;2.25;;;;;;;;;;5243118;28;20029;-79
2022/11/22 10:30:44;;;;;;;6.25;1.90;;;;;;;;;;5243398;28;20022;-78
2022/11/22 10:33:19;;;;;;;8.98;1.70;;;;;;;;;;5242360;28;20046;-79
2022/11/22 10:35:53;;;;;;;6.03;1.80;;;;;;;;;;5243057;28;20113;-79
2022/11/22 10:38:31;;;;;;;10.15;1.88;;;;;;;;;;5241821;28;20026;-79
2022/11/22 10:41:09;;;;;;;5.13;1.42;;;;;;;;;;5224569;28;20411;-78
2022/11/22 10:43:50;;;;;;;5.82;1.50;;;;;;;;;;5242110;28;20034;-79
2022/11/22 10:46:26;;;;;;;6.57;1.80;;;;;;;;;;5224971;28;20025;-79
2022/11/22 10:49:06;;;;;;;6.40;1.90;;;;;;;;;;5224591;28;20040;-79
2022/11/22 10:51:43;;;;;;;6.28;2.45;;;;;;;;;;5242974;28;20544;-79
2022/11/22 10:54:19;;;;;;;4.78;1.92;;;;;;;;;;5241842;28;20057;-78
2022/11/22 10:56:55;;;;;;;6.93;1.37;;;;;;;;;;5243071;28;20017;-79
2022/11/22 10:59:34;;;;;;;4.75;1.70;;;;;;;;;;5242827;28;20313;-79
2022/11/22 11:02:15;;;;;;;4.35;2.10;;;;;;;;;;5212139;28;20475;-78
2022/11/22 11:04:47;;;;;;;4.82;1.75;;;;;;;;;;5240917;28;20402;-79
2022/11/22 11:07:20;;;;;;;5.20;1.80;;;;;;;;;;5243114;28;20060;-79
2022/11/22 11:09:53;;;;;;;4.50;2.00;;;;;;;;;;5224421;28;20046;-79
2022/11/22 11:12:32;;;;;;;4.43;2.08;;;;;;;;;;5242194;28;20025;-79
2022/11/22 11:15:23;;;;;;;4.07;1.55;;;;;;;;;;5242144;28;20026;-79
2022/11/22 11:17:57;;;;;;;5.13;1.45;;;;;;;;;;5242551;28;20374;-79
2022/11/22 11:20:40;;;;;;;2.95;1.52;;;;;;;;;;5243255;28;20092;-78
2022/11/22 11:23:11;;;;;;;3.78;1.58;;;;;;;;;;5241749;28;20184;-78
2022/11/22 11:25:46;;;;;;;6.33;1.40;;;;;;;;;;5242834;28;20108;-77
2022/11/22 11:28:22;;;;;;;3.08;1.20;;;;;;;;;;5239975;28;20296;-77
2022/11/22 11:31:07;;;;;;;3.23;1.10;;;;;;;;;;5242777;28;20125;-77
2022/11/22 11:33:39;;;;;;;2.35;1.10;;;;;;;;;;5240290;28;20034;-77
2022/11/22 11:36:13;;;;;;;3.35;0.80;;;;;;;;;;5241635;28;20497;-78
2022/11/22 11:38:45;;;;;;;6.53;1.35;;;;;;;;;;5231855;28;20022;-78
2022/11/22 11:41:20;;;;;;;3.22;1.08;;;;;;;;;;5240432;28;20026;-78
2022/11/22 11:43:53;;;;;;;2.37;1.10;;;;;;;;;;5230851;28;20124;-78
2022/11/22 11:46:28;;;;;;;3.10;1.00;;;;;;;;;;5239167;28;20046;-77
2022/11/22 11:49:08;;;;;;;1.90;0.80;;;;;;;;;;5241945;28;20093;-78
2022/11/22 11:51:39;;;;;;;2.97;0.82;;;;;;;;;;5241282;28;20442;-78
2022/11/22 11:54:16;;;;;;;3.43;1.23;;;;;;;;;;5242272;28;20049;-78
2022/11/22 11:56:48;;;;;;;3.03;1.40;;;;;;;;;;5242124;28;20297;-77
2022/11/22 11:59:21;;;;;;;1.67;0.80;;;;;;;;;;5242228;28;20427;-78
2022/11/22 12:01:54;;;;;;;2.85;0.70;;;;;;;;;;5261277;28;20303;-78
2022/11/22 12:04:28;;;;;;;2.25;0.60;;;;;;;;;;5260698;28;20028;-78
2022/11/22 12:07:16;;;;;;;3.97;1.00;;;;;;;;;;5223464;28;20029;-78
2022/11/22 12:09:48;;;;;;;3.75;0.88;;;;;;;;;;5238214;28;20049;-77
2022/11/22 12:12:25;;;;;;;2.15;0.70;;;;;;;;;;5242581;28;20034;-77
2022/11/22 12:15:15;;;;;;;2.08;0.65;;;;;;;;;;5241557;28;20458;-77
2022/11/22 12:17:56;;;;;;;1.75;0.80;;;;;;;;;;5240704;28;20034;-77
2022/11/22 12:20:46;;;;;;;1.48;0.90;;;;;;;;;;5236400;28;20033;-77
2022/11/22 12:23:23;;;;;;;1.42;0.55;;;;;;;;;;5222188;28;20054;-77
2022/11/22 12:25:55;;;;;;;1.02;0.52;;;;;;;;;;5222996;28;20434;-77
2022/11/22 12:28:27;;;;;;;2.25;0.60;;;;;;;;;;5241443;28;20029;-77
2022/11/22 12:31:12;;;;;;;2.38;0.60;;;;;;;;;;5240552;28;20101;-77
2022/11/22 12:33:46;;;;;;;2.47;0.60;;;;;;;;;;5226398;28;20030;-78
2022/11/22 12:36:37;;;;;;;0.77;0.47;;;;;;;;;;5241452;28;20461;-79
2022/11/22 12:39:11;;;;;;;1.60;0.60;;;;;;;;;;5241214;28;20059;-79
2022/11/22 12:41:45;;;;;;;2.38;0.70;;;;;;;;;;5223534;28;20022;-79
2022/11/22 12:44:18;;;;;;;5.10;0.90;;;;;;;;;;5241300;28;20045;-79
2022/11/22 12:46:52;;;;;;;1.00;0.50;;;;;;;;;;5240060;28;20029;-79
2022/11/22 12:49:23;;;;;;;2.13;0.80;;;;;;;;;;5223102;28;20041;-79
2022/11/22 12:51:54;;;;;;;2.47;0.60;;;;;;;;;;5240748;28;20030;-79
2022/11/22 12:54:31;;;;;;;3.33;1.02;;;;;;;;;;5241383;28;20018;-79
2022/11/22 12:57:13;;;;;;;2.20;1.20;;;;;;;;;;5240313;28;20022;-78
2022/11/22 13:00:04;;;;;;;1.60;0.73;;;;;;;;;;5242302;28;20030;-78
2022/11/22 13:02:54;;;;;;;1.70;0.50;;;;;;;;;;5260909;28;20440;-78
2022/11/22 13:05:27;;;;;;;1.17;0.50;;;;;;;;;;5243231;28;20029;-78
2022/11/22 13:08:02;;;;;;;1.42;0.70;;;;;;;;;;5259896;28;20042;-79
2022/11/22 13:10:34;;;;;;;1.00;0.50;;;;;;;;;;5240857;28;20041;-78
2022/11/22 13:13:09;;;;;;;1.13;0.60;;;;;;;;;;5223625;28;20036;-78
2022/11/22 13:15:41;;;;;;;2.33;0.40;;;;;;;;;;5240785;28;20037;-78
2022/11/22 13:18:14;;;;;;;1.88;0.70;;;;;;;;;;5222253;28;20026;-79
2022/11/22 13:21:06;;;;;;;1.20;0.60;;;;;;;;;;5239073;28;20088;-79
2022/11/22 13:23:40;;;;;;;1.23;0.68;;;;;;;;;;5222437;28;20046;-79
2022/11/22 13:26:16;;;;;;;0.77;0.50;;;;;;;;;;5261891;28;20021;-78
2022/11/22 13:28:49;;;;;;;1.43;0.67;;;;;;;;;;5264636;28;20105;-77
2022/11/22 13:31:20;;;;;;;2.95;0.60;;;;;;;;;;5265115;28;20045;-76
2022/11/22 13:33:51;;;;;;;1.02;0.55;;;;;;;;;;5238349;28;20452;-76
2022/11/22 13:36:26;;;;;;;2.85;0.68;;;;;;;;;;5223533;28;20105;-76
2022/11/22 13:38:58;;;;;;;1.10;0.75;;;;;;;;;;5222926;28;20038;-77
2022/11/22 13:41:35;;;;;;;0.60;0.52;;;;;;;;;;5223530;28;20632;-76
2022/11/22 13:44:33;;;;;;;1.60;0.73;;;;;;;;;;5221366;28;20030;-77
2022/11/22 13:47:22;;;;;;;0.95;0.75;;;;;;;;;;5221773;28;20112;-76
2022/11/22 13:49:54;;;;;;;0.85;0.52;;;;;;;;;;5237109;28;20136;-77
2022/11/22 13:52:26;;;;;;;2.65;0.80;;;;;;;;;;5242198;28;20104;-77
2022/11/22 13:54:59;;;;;;;1.35;0.50;;;;;;;;;;5244094;28;20072;-77
2022/11/22 13:57:33;;;;;;;1.85;0.70;;;;;;;;;;5242570;28;20088;-77
2022/11/22 14:00:13;;;;;;;2.33;0.60;;;;;;;;;;5229846;28;20036;-77
2022/11/22 14:02:46;;;;;;;1.75;0.70;;;;;;;;;;5222716;28;20356;-77
2022/11/22 14:05:32;;;;;;;3.05;1.33;;;;;;;;;;5235571;28;20034;-77
2022/11/22 14:08:04;;;;;;;0.60;0.60;;;;;;;;;;5242784;28;20065;-77
2022/11/22 14:11:00;;;;;;;1.83;0.80;;;;;;;;;;5225577;28;20033;-77
2022/11/22 14:13:31;;;;;;;1.65;0.80;;;;;;;;;;5240217;28;20030;-77
2022/11/22 14:16:11;;;;;;;2.17;0.75;;;;;;;;;;5243934;28;20025;-77
2022/11/22 14:18:51;;;;;;;3.10;0.82;;;;;;;;;;5228933;28;20030;-77
2022/11/22 14:21:37;;;;;;;2.35;0.80;;;;;;;;;;5230372;28;20528;-77
2022/11/22 14:24:08;;;;;;;1.58;1.10;;;;;;;;;;5240754;28;20458;-77
2022/11/22 14:26:40;;;;;;;1.63;0.70;;;;;;;;;;5243531;28;20018;-78
2022/11/22 14:29:21;;;;;;;1.95;0.52;;;;;;;;;;5243478;28;20046;-78
2022/11/22 14:31:58;;;;;;;0.95;0.55;;;;;;;;;;5242846;28;20390;-78
2022/11/22 14:34:30;;;;;;;2.50;0.60;;;;;;;;;;5242752;28;20394;-78
2022/11/22 14:37:13;;;;;;;1.75;0.60;;;;;;;;;;5241903;28;20041;-79
2022/11/22 14:39:52;;;;;;;1.05;0.40;;;;;;;;;;5242206;28;20038;-77
2022/11/22 14:42:39;;;;;;;1.88;0.70;;;;;;;;;;5225164;28;20033;-78
2022/11/22 14:45:11;;;;;;;1.58;0.63;;;;;;;;;;5228423;28;20049;-78
2022/11/22 14:47:43;;;;;;;3.07;0.90;;;;;;;;;;5223290;28;20018;-78
2022/11/22 14:50:26;;;;;;;0.90;0.70;;;;;;;;;;5242469;28;20244;-78
2022/11/22 14:52:58;;;;;;;1.55;0.55;;;;;;;;;;5239778;28;20371;-78
2022/11/22 14:55:33;;;;;;;1.40;0.85;;;;;;;;;;5243012;28;20355;-78
2022/11/22 14:58:06;;;;;;;1.63;0.63;;;;;;;;;;5232281;28;20073;-78
2022/11/22 15:00:46;;;;;;;1.95;0.80;;;;;;;;;;5239946;28;20030;-78
2022/11/22 15:03:20;;;;;;;2.25;0.80;;;;;;;;;;5229387;28;20390;-79
2022/11/22 15:06:15;;;;;;;1.40;0.60;;;;;;;;;;5238932;28;20762;-78
2022/11/22 15:08:46;;;;;;;3.40;0.90;;;;;;;;;;5218289;28;20122;-79
2022/11/22 15:11:35;;;;;;;1.13;0.50;;;;;;;;;;5243003;28;20034;-79
2022/11/22 15:14:26;;;;;;;14.60;13.05;;;;;;;;;;5240512;28;20270;-78
2022/11/22 15:16:59;;;;;;;4.07;1.35;;;;;;;;;;5199501;28;20403;-78
2022/11/22 15:19:34;;;;;;;1.65;1.52;;;;;;;;;;5241198;28;20145;-79
2022/11/22 15:22:10;;;;;;;1.55;1.10;;;;;;;;;;5229697;28;20041;-78
2022/11/22 15:25:10;;;;;;;2.55;1.80;;;;;;;;;;5240670;28;20041;-78
2022/11/22 15:27:45;;;;;;;2.15;1.75;;;;;;;;;;5240754;28;20403;-79